Time;durP1;ratioP1;P1;durP2;ratioP2;P2;SDS_P1;SDS_P2;PMS_P1;PMS_P2;Temp;Humidity;BMP_temperature;BMP_pressure;BME280_temperature;BME280_humidity;BME280_pressure;Samples;Min_cycle;Max_cycle;Signal;HPM_P1;HPM_P2
2021/12/05 00:24:09;;;;;;;5.43;2.83;;;;;;;18.66;27.38;98789.28;5005177;28;19920;-72
2021/12/05 00:26:17;;;;;;;5.25;2.42;;;;;;;18.68;27.36;98789.91;5020307;28;20133;-67
2021/12/05 00:45:18;;;;;;;3.63;2.58;;;;;;;18.93;26.46;98793.03;5040876;28;20111;-73
2021/12/05 01:16:41;;;;;;;4.18;3.50;;;;;;;19.14;25.87;98765.38;5032842;28;20479;-68
2021/12/05 01:19:10;;;;;;;3.97;3.45;;;;;;;19.13;25.80;98758.34;5038544;28;20044;-68
2021/12/05 01:21:39;;;;;;;5.88;3.47;;;;;;;19.13;26.14;98766.41;5052325;28;20124;-68
2021/12/05 01:32:03;;;;;;;8.00;3.50;;;;;;;19.10;26.45;98761.41;5032540;28;20036;-70
2021/12/05 02:31:07;;;;;;;5.72;4.35;;;;;;;19.35;26.56;98777.06;5032292;28;20527;-69
2021/12/05 02:41:29;;;;;;;5.40;3.60;;;;;;;19.41;26.68;98776.28;5035340;28;20034;-68
2021/12/05 02:44:00;;;;;;;4.60;3.63;;;;;;;19.41;26.70;98773.59;5032548;28;20037;-69
2021/12/05 02:46:26;;;;;;;5.65;4.05;;;;;;;19.41;26.50;98762.03;5035915;28;20065;-69
2021/12/05 02:48:57;;;;;;;6.90;4.20;;;;;;;19.43;26.54;98768.00;5034541;28;20045;-69
2021/12/05 02:51:25;;;;;;;6.38;4.45;;;;;;;19.44;26.43;98762.47;5035541;28;20121;-69
2021/12/05 02:54:05;;;;;;;5.20;3.90;;;;;;;19.44;26.73;98762.47;5035339;28;20064;-69
2021/12/05 02:56:33;;;;;;;6.53;4.63;;;;;;;19.47;26.64;98772.81;5035206;28;20033;-69
2021/12/05 02:59:07;;;;;;;4.30;3.80;;;;;;;19.47;26.48;98767.44;5034899;28;20037;-70
2021/12/05 03:01:45;;;;;;;6.55;4.68;;;;;;;19.48;26.41;98769.06;5035515;28;20040;-68
2021/12/05 03:04:10;;;;;;;5.60;4.20;;;;;;;19.50;26.71;98766.22;5035099;28;20056;-68
2021/12/05 03:06:38;;;;;;;4.82;3.67;;;;;;;19.52;26.72;98762.28;5035012;28;20507;-68
2021/12/05 03:09:14;;;;;;;4.55;3.80;;;;;;;19.53;27.00;98765.81;5034742;28;20315;-68
2021/12/05 03:11:40;;;;;;;5.30;4.07;;;;;;;19.56;26.58;98768.09;5035496;28;20525;-68
2021/12/05 03:14:07;;;;;;;5.07;4.57;;;;;;;19.58;26.55;98771.41;5034779;28;20061;-67
2021/12/05 03:16:35;;;;;;;5.07;3.92;;;;;;;19.59;26.67;98764.19;5035408;28;20040;-67
2021/12/05 03:19:01;;;;;;;5.97;4.05;;;;;;;19.59;26.64;98766.88;5042980;28;20048;-68
2021/12/05 03:21:27;;;;;;;5.97;3.70;;;;;;;19.59;26.61;98762.34;5042822;28;20041;-68
2021/12/05 03:23:53;;;;;;;5.07;4.13;;;;;;;19.61;26.37;98757.59;5034918;28;20033;-67
2021/12/05 03:26:24;;;;;;;5.78;4.03;;;;;;;19.62;26.27;98769.19;5035103;28;20112;-69
2021/12/05 03:28:54;;;;;;;6.07;4.00;;;;;;;19.64;26.53;98753.69;5034510;28;20040;-69
2021/12/05 03:31:19;;;;;;;5.15;4.25;;;;;;;19.63;26.49;98760.91;5035133;28;20045;-68
2021/12/05 03:33:45;;;;;;;5.30;4.38;;;;;;;19.66;26.26;98759.69;5034765;28;20412;-68
2021/12/05 03:36:11;;;;;;;5.53;4.38;;;;;;;19.66;26.32;98763.22;5035152;28;20120;-68
2021/12/05 03:38:38;;;;;;;5.35;3.63;;;;;;;19.66;26.35;98765.88;5034482;28;20044;-69
2021/12/05 03:41:05;;;;;;;5.32;4.18;;;;;;;19.67;26.54;98772.06;5035251;28;20189;-68
2021/12/05 03:43:31;;;;;;;5.25;3.85;;;;;;;19.69;26.51;98775.38;5030232;28;20025;-68
2021/12/05 03:45:58;;;;;;;5.28;4.00;;;;;;;19.71;26.43;98772.50;5014453;28;20096;-68
2021/12/05 03:48:28;;;;;;;4.75;4.20;;;;;;;19.71;26.49;98775.19;5021209;28;20128;-69
2021/12/05 03:50:55;;;;;;;5.88;4.10;;;;;;;19.72;26.45;98780.38;5034620;28;20091;-68
2021/12/05 03:53:21;;;;;;;4.93;3.88;;;;;;;19.73;26.41;98779.34;5034635;28;20029;-69
2021/12/05 03:55:50;;;;;;;4.78;3.50;;;;;;;19.74;26.38;98782.84;5033898;28;20041;-69
2021/12/05 03:58:16;;;;;;;6.10;4.53;;;;;;;19.75;26.25;98788.03;5033504;28;20102;-69
2021/12/05 04:00:46;;;;;;;5.43;4.20;;;;;;;19.75;26.65;98782.66;5034507;28;20030;-68
2021/12/05 04:03:16;;;;;;;4.93;3.88;;;;;;;19.77;26.44;98787.81;5034086;28;20034;-68
2021/12/05 04:05:41;;;;;;;5.25;3.83;;;;;;;19.78;26.60;98792.16;5034150;28;20033;-69
2021/12/05 04:08:10;;;;;;;6.55;4.20;;;;;;;19.79;26.73;98791.94;5033200;28;20052;-69
2021/12/05 04:10:41;;;;;;;4.60;4.00;;;;;;;19.78;26.56;98787.59;5034144;28;20407;-69
2021/12/05 04:13:10;;;;;;;5.80;4.33;;;;;;;19.79;26.56;98796.50;5033589;28;20050;-69
2021/12/05 04:15:37;;;;;;;5.30;4.10;;;;;;;19.79;26.36;98791.94;5034301;28;20029;-69
2021/12/05 04:18:03;;;;;;;4.43;3.65;;;;;;;19.81;26.75;98786.41;5033342;28;20459;-69
2021/12/05 04:20:29;;;;;;;4.93;4.30;;;;;;;19.81;26.72;98789.91;5034228;28;20033;-68
2021/12/05 04:22:55;;;;;;;5.05;3.60;;;;;;;19.81;26.60;98789.91;5034236;28;20489;-69
2021/12/05 04:25:21;;;;;;;5.25;3.80;;;;;;;19.83;26.72;98792.41;5034168;28;20534;-69
2021/12/05 04:27:51;;;;;;;4.28;3.88;;;;;;;19.83;26.64;98790.53;5033516;28;20506;-70
2021/12/05 04:30:19;;;;;;;5.07;3.70;;;;;;;19.86;26.74;98791.16;5033635;28;20419;-69
2021/12/05 04:32:45;;;;;;;5.00;3.55;;;;;;;19.83;26.66;98790.53;5033053;28;20034;-69
2021/12/05 04:35:11;;;;;;;4.50;3.90;;;;;;;19.86;26.54;98796.53;5033531;28;20041;-69
2021/12/05 04:37:37;;;;;;;6.75;4.03;;;;;;;19.87;26.59;98800.91;5033379;28;20072;-68
2021/12/05 04:40:05;;;;;;;4.70;4.03;;;;;;;19.89;26.69;98801.53;5033772;28;20048;-68
2021/12/05 04:42:31;;;;;;;5.10;4.28;;;;;;;19.88;26.70;98806.06;5033213;28;20029;-69
2021/12/05 04:44:57;;;;;;;5.85;4.78;;;;;;;19.88;26.60;98811.44;5032499;28;20411;-68
2021/12/05 04:47:23;;;;;;;5.72;4.20;;;;;;;19.90;26.38;98811.25;5033303;28;20026;-69
2021/12/05 04:49:49;;;;;;;5.80;4.57;;;;;;;19.89;26.58;98814.97;5033437;28;20120;-68
2021/12/05 04:52:15;;;;;;;5.32;4.15;;;;;;;19.88;26.66;98814.13;5032839;28;20060;-68
2021/12/05 04:54:41;;;;;;;4.32;3.88;;;;;;;19.90;26.39;98811.25;5032421;28;20064;-68
2021/12/05 04:57:07;;;;;;;7.32;4.45;;;;;;;19.91;26.36;98810.22;5032170;28;20067;-69
2021/12/05 04:59:36;;;;;;;5.78;4.10;;;;;;;19.90;26.44;98811.25;5032577;28;20037;-69
2021/12/05 05:02:04;;;;;;;6.47;4.35;;;;;;;19.93;26.84;98813.50;5032985;28;20470;-68
2021/12/05 05:04:30;;;;;;;4.55;3.63;;;;;;;19.92;26.84;98815.38;5032912;28;20622;-69
2021/12/05 05:07:01;;;;;;;6.32;4.60;;;;;;;19.93;26.64;98822.41;5033082;28;20094;-69
2021/12/05 05:09:27;;;;;;;;;;;;;;;19.89;27.27;98806.91;5032736;28;20472;-68
2021/12/05 05:11:52;;;;;;;6.53;4.38;;;;;;;19.91;26.82;98815.59;5032399;28;19916;-69
2021/12/05 05:14:18;;;;;;;5.85;4.50;;;;;;;19.92;26.71;98815.38;5033039;28;20078;-68
2021/12/05 05:16:47;;;;;;;4.55;3.85;;;;;;;19.93;26.84;98817.03;5032623;28;20131;-69
2021/12/05 05:19:15;;;;;;;4.53;4.03;;;;;;;19.93;26.81;98824.25;5033000;28;20037;-69
2021/12/05 05:24:42;;;;;;;6.68;4.25;;;;;;;19.96;26.81;98831.91;5032071;28;20043;-68
2021/12/05 05:48:33;;;;;;;6.30;4.25;;;;;;;19.97;27.13;98863.97;5018490;28;20044;-68
2021/12/05 05:50:46;;;;;;;6.53;4.85;;;;;;;19.98;26.99;98856.72;5029276;28;20041;-68
2021/12/05 05:53:12;;;;;;;5.38;4.07;;;;;;;19.98;27.21;98867.44;5032234;28;20052;-69
2021/12/05 05:55:37;;;;;;;5.32;4.30;;;;;;;19.99;27.20;98865.63;5032125;28;20041;-68
2021/12/05 05:58:26;;;;;;;4.85;3.78;;;;;;;19.99;27.28;98866.44;5031090;28;20033;-68
2021/12/05 06:00:59;;;;;;;7.38;4.50;;;;;;;19.99;27.26;98874.47;5032174;28;20041;-69
2021/12/05 06:03:25;;;;;;;5.00;4.15;;;;;;;19.99;27.07;98862.94;5031872;28;20029;-70
2021/12/05 06:05:55;;;;;;;4.70;3.80;;;;;;;20.00;27.17;98868.09;5032080;28;20029;-69
2021/12/05 06:08:24;;;;;;;5.40;4.70;;;;;;;20.02;27.11;98871.41;5031183;28;20120;-68
2021/12/05 06:10:54;;;;;;;6.18;3.90;;;;;;;20.04;27.10;98869.34;5032190;28;20061;-69
2021/12/05 06:13:20;;;;;;;5.93;4.53;;;;;;;20.04;26.98;98869.34;5031404;28;20061;-71
2021/12/05 06:15:47;;;;;;;5.90;4.30;;;;;;;20.04;26.83;98858.63;5032240;28;20030;-68
2021/12/05 06:18:13;;;;;;;6.78;4.60;;;;;;;20.06;26.94;98869.16;5031634;28;20038;-70
2021/12/05 06:20:39;;;;;;;5.15;4.65;;;;;;;20.05;26.81;98867.50;5031805;28;20083;-68
2021/12/05 06:23:05;;;;;;;5.45;4.40;;;;;;;20.05;27.00;98864.81;5032271;28;20046;-68
2021/12/05 06:25:34;;;;;;;6.47;4.95;;;;;;;20.06;26.67;98871.84;5032553;28;20037;-70
2021/12/05 06:28:04;;;;;;;4.72;4.05;;;;;;;20.06;26.85;98867.31;5031744;28;20025;-69
2021/12/05 06:48:35;;;;;;;7.20;4.63;;;;;;;20.13;27.17;98897.69;5016523;28;20499;-68
2021/12/05 06:51:00;;;;;;;6.03;4.60;;;;;;;20.15;27.01;98896.66;5031706;28;20120;-69
2021/12/05 06:53:26;;;;;;;5.60;4.40;;;;;;;20.15;27.04;98899.34;5031990;28;20029;-69
2021/12/05 06:55:52;;;;;;;6.07;4.40;;;;;;;20.17;26.87;98905.34;5032048;28;20510;-69
2021/12/05 06:58:18;;;;;;;4.95;3.92;;;;;;;20.17;27.05;98897.31;5030716;28;20041;-70
2021/12/05 07:00:43;;;;;;;4.75;3.72;;;;;;;20.19;27.07;98908.69;5032064;28;20029;-70
2021/12/05 07:03:10;;;;;;;4.85;4.15;;;;;;;20.19;27.05;98904.13;5031746;28;20442;-69
2021/12/05 07:05:48;;;;;;;4.50;3.83;;;;;;;20.19;27.04;98909.50;5031442;28;20045;-69
2021/12/05 07:08:16;;;;;;;4.10;3.70;;;;;;;20.20;27.23;98913.84;5031459;28;20053;-68
2021/12/05 07:15:52;;;;;;;5.20;3.90;;;;;;;20.23;26.78;98928.72;5031341;28;20029;-68
2021/12/05 07:21:17;;;;;;;4.80;4.25;;;;;;;20.24;26.68;98935.75;5033526;28;20033;-68
2021/12/05 07:26:48;;;;;;;5.72;4.57;;;;;;;20.26;26.95;98931.84;5034773;28;20435;-69
2021/12/05 07:40:25;;;;;;;4.00;3.20;;;;;;;20.27;27.49;98943.41;5035004;28;20515;-69
2021/12/05 07:42:56;;;;;;;5.38;4.70;;;;;;;20.29;27.24;98944.06;5034326;28;20116;-68
2021/12/05 07:45:31;;;;;;;6.55;4.38;;;;;;;20.29;27.35;98949.44;5015276;28;20045;-69
2021/12/05 07:47:59;;;;;;;5.57;4.53;;;;;;;20.30;27.17;98943.03;5014446;28;20080;-69
2021/12/05 07:50:48;;;;;;;6.50;4.78;;;;;;;20.31;27.33;98944.69;5014453;28;20038;-69
2021/12/05 07:53:19;;;;;;;6.53;4.53;;;;;;;20.30;27.38;98931.44;5014080;28;20435;-68
2021/12/05 07:55:47;;;;;;;5.10;3.95;;;;;;;20.31;27.48;98930.41;5032752;28;20095;-68
2021/12/05 08:01:15;;;;;;;4.43;4.00;;;;;;;20.32;27.58;98932.91;5035065;28;20037;-71
2021/12/05 08:14:42;;;;;;;6.50;4.70;;;;;;;20.42;27.53;98933.38;5034452;28;20036;-68
2021/12/05 08:17:16;;;;;;;6.05;4.07;;;;;;;20.44;27.54;98943.91;5034022;28;20057;-67
2021/12/05 08:19:41;;;;;;;6.10;4.30;;;;;;;20.48;27.22;98947.03;5034218;28;20063;-67
2021/12/05 08:22:07;;;;;;;5.43;4.57;;;;;;;20.51;26.83;98943.97;5033661;28;20041;-68
2021/12/05 08:24:35;;;;;;;5.47;4.20;;;;;;;20.52;26.88;98946.44;5034014;28;20160;-67
2021/12/05 08:27:04;;;;;;;4.75;3.92;;;;;;;20.55;27.37;98935.28;5033912;28;20563;-68
2021/12/05 08:29:37;;;;;;;5.65;5.03;;;;;;;20.59;26.80;98946.47;5033741;28;20041;-68
2021/12/05 09:20:46;;;;;;;7.03;4.50;;;;;;;21.08;27.49;98949.94;5012640;28;20036;-64
2021/12/05 09:30:54;;;;;;;4.95;3.70;;;;;;;21.22;27.47;98952.66;5013196;28;20034;-63
2021/12/05 10:18:30;;;;;;;6.78;4.45;;;;;;;21.47;27.45;98977.13;5022904;28;20087;-64
2021/12/05 10:38:06;;;;;;;6.88;4.68;;;;;;;19.26;29.70;98979.38;5031937;28;20045;-67
2021/12/05 10:40:43;;;;;;;7.60;5.22;;;;;;;18.75;30.20;98973.03;5031839;28;20030;-66
2021/12/05 10:43:21;;;;;;;10.07;5.30;;;;;;;18.38;30.66;98983.69;5030940;28;20041;-67
2021/12/05 10:45:53;;;;;;;8.15;4.78;;;;;;;18.09;31.04;98985.34;5012127;28;20041;-66
2021/12/05 10:48:22;;;;;;;8.40;5.30;;;;;;;17.86;31.34;98988.09;5021224;28;20029;-66
2021/12/05 10:50:54;;;;;;;10.38;6.22;;;;;;;17.69;31.58;98990.06;5050432;28;20060;-66
2021/12/05 10:53:31;;;;;;;8.70;5.25;;;;;;;17.50;32.02;98989.53;5031596;28;20488;-66
2021/12/05 10:56:07;;;;;;;6.78;4.97;;;;;;;17.39;32.23;98989.97;5034091;28;20137;-66
2021/12/05 10:58:39;;;;;;;9.85;5.40;;;;;;;17.27;31.73;98994.91;5035268;28;20043;-66
2021/12/05 11:01:10;;;;;;;;;;;;;;;17.07;32.23;98992.69;5035540;28;20053;-66
2021/12/05 11:03:36;;;;;;;8.18;5.18;;;;;;;16.98;32.07;98990.25;5034962;28;20012;-66
2021/12/05 11:06:21;;;;;;;7.50;4.97;;;;;;;16.90;32.45;98991.09;5035012;28;20121;-67
2021/12/05 11:08:53;;;;;;;6.32;4.65;;;;;;;16.87;32.84;98991.44;5035668;28;20557;-66
2021/12/05 11:11:18;;;;;;;7.47;4.50;;;;;;;16.83;32.83;98990.13;5035627;28;20037;-68
2021/12/05 11:13:45;;;;;;;7.45;4.70;;;;;;;16.81;32.93;98987.63;5034659;28;20066;-64
2021/12/05 11:16:43;;;;;;;8.05;5.13;;;;;;;16.76;33.02;98992.66;5034948;28;20076;-67
2021/12/05 11:19:40;;;;;;;7.07;4.97;;;;;;;16.68;32.92;98998.88;5035176;28;20036;-66
2021/12/05 11:22:10;;;;;;;6.35;4.65;;;;;;;16.64;32.87;99000.22;5033838;28;20056;-64
2021/12/05 11:24:40;;;;;;;7.63;4.82;;;;;;;16.61;33.52;98997.91;5035015;28;20535;-66
2021/12/05 11:27:08;;;;;;;15.30;6.80;;;;;;;16.58;33.68;99003.59;5035025;28;20029;-66
2021/12/05 11:29:41;;;;;;;16.02;6.85;;;;;;;16.53;33.74;99005.97;5034957;28;20041;-66
2021/12/05 11:32:10;;;;;;;11.65;6.43;;;;;;;16.50;34.03;98993.75;5035164;28;20037;-66
2021/12/05 11:34:36;;;;;;;24.77;8.63;;;;;;;16.45;35.01;99004.97;5034507;28;20124;-65
2021/12/05 11:37:01;;;;;;;31.30;9.85;;;;;;;16.41;35.34;99003.63;5033769;28;20187;-66
2021/12/05 11:39:27;;;;;;;50.08;14.90;;;;;;;16.35;35.53;99004.34;5035047;28;20037;-65
2021/12/05 11:41:53;;;;;;;43.80;15.43;;;;;;;16.30;35.67;99001.34;5016619;28;20036;-66
2021/12/05 11:44:21;;;;;;;46.58;15.57;;;;;;;16.29;35.85;99005.00;5023469;28;20120;-68
2021/12/05 11:46:47;;;;;;;36.28;12.98;;;;;;;16.23;36.04;99006.53;5031730;28;20063;-65
2021/12/05 11:49:20;;;;;;;28.98;11.43;;;;;;;16.21;36.11;99005.88;5034439;28;20036;-65
2021/12/05 11:51:52;;;;;;;28.30;11.40;;;;;;;16.21;35.63;99015.72;5034413;28;20042;-66
2021/12/05 11:54:30;;;;;;;22.35;10.13;;;;;;;16.21;35.93;99015.72;5033884;28;20174;-66
2021/12/05 11:57:03;;;;;;;27.95;10.57;;;;;;;16.16;35.75;99021.56;5033729;28;20116;-66
2021/12/05 11:59:40;;;;;;;17.55;8.60;;;;;;;16.13;35.94;99020.06;5034304;28;20056;-66
2021/12/05 12:02:19;;;;;;;20.52;9.70;;;;;;;16.09;35.77;99018.75;5033925;28;20068;-66
2021/12/05 12:04:56;;;;;;;20.15;9.30;;;;;;;16.05;35.82;99019.22;5034042;28;20040;-66
2021/12/05 12:08:02;;;;;;;17.90;7.88;;;;;;;16.03;35.79;99019.41;5033650;28;20029;-65
2021/12/05 12:10:49;;;;;;;12.15;7.28;;;;;;;15.98;35.74;99019.06;5033307;28;20029;-66
2021/12/05 12:13:22;;;;;;;10.10;6.28;;;;;;;16.00;35.53;99025.09;5033107;28;20076;-65
2021/12/05 12:15:58;;;;;;;18.20;7.32;;;;;;;16.00;35.24;99022.41;5033990;28;20484;-66
2021/12/05 12:18:28;;;;;;;10.25;6.22;;;;;;;15.99;35.33;99026.09;5034122;28;20110;-66
2021/12/05 12:20:56;;;;;;;9.50;5.53;;;;;;;15.97;35.30;99031.59;5034621;28;20086;-66
2021/12/05 12:23:23;;;;;;;10.15;6.65;;;;;;;15.96;35.03;99029.09;5033667;28;20056;-65
2021/12/05 12:25:52;;;;;;;9.65;5.85;;;;;;;15.92;35.37;99028.59;5033307;28;20168;-66
2021/12/05 12:28:19;;;;;;;8.35;5.60;;;;;;;15.91;35.56;99032.25;5033448;28;20119;-66
2021/12/05 12:30:52;;;;;;;8.00;5.40;;;;;;;15.88;35.04;99026.44;5034292;28;20064;-65
2021/12/05 12:33:29;;;;;;;8.25;5.18;;;;;;;15.86;35.31;99035.44;5033301;28;20032;-66
2021/12/05 12:35:55;;;;;;;10.82;6.15;;;;;;;15.85;35.31;99035.63;5033533;28;20048;-66
2021/12/05 12:38:33;;;;;;;13.73;6.22;;;;;;;15.85;35.52;99039.09;5033905;28;20037;-67
2021/12/05 12:41:11;;;;;;;9.90;6.03;;;;;;;15.82;35.69;99035.91;5033497;28;20090;-67
2021/12/05 12:43:47;;;;;;;9.80;6.00;;;;;;;15.79;35.49;99031.75;5027965;28;20037;-67
2021/12/05 12:46:25;;;;;;;9.32;5.63;;;;;;;15.79;35.48;99038.91;5013965;28;20421;-67
2021/12/05 12:49:12;;;;;;;9.30;5.55;;;;;;;15.76;35.62;99034.75;5013728;28;20029;-67
2021/12/05 12:51:39;;;;;;;10.20;5.38;;;;;;;15.69;36.13;99041.72;5014273;28;20037;-67
2021/12/05 12:54:15;;;;;;;10.90;5.45;;;;;;;15.70;35.81;99043.41;5031501;28;20037;-66
2021/12/05 12:56:43;;;;;;;6.60;4.18;;;;;;;15.70;35.81;99043.41;5032964;28;20091;-66
2021/12/05 12:59:13;;;;;;;7.30;5.10;;;;;;;15.70;35.92;99038.91;5032838;28;20029;-67
2021/12/05 13:04:49;;;;;;;8.25;4.80;;;;;;;15.68;35.81;99046.25;5032776;28;20125;-66
2021/12/05 13:10:09;;;;;;;6.57;4.45;;;;;;;15.63;35.92;99056.56;5032936;28;20033;-67
2021/12/05 13:12:41;;;;;;;9.30;4.75;;;;;;;15.60;35.89;99056.91;5031829;28;20057;-67
2021/12/05 13:15:27;;;;;;;11.30;5.07;;;;;;;15.61;35.73;99050.56;5032744;28;20033;-66
2021/12/05 13:17:59;;;;;;;6.88;5.13;;;;;;;15.60;35.78;99058.75;5031094;28;20047;-66
2021/12/05 13:20:43;;;;;;;7.90;4.90;;;;;;;15.59;35.62;99059.75;5032538;28;20040;-65
2021/12/05 13:23:19;;;;;;;9.07;5.45;;;;;;;15.54;35.80;99060.25;5032380;28;20025;-66
2021/12/05 13:26:06;;;;;;;8.13;4.82;;;;;;;15.51;35.67;99061.38;5032105;28;20065;-65
2021/12/05 13:28:34;;;;;;;9.23;4.97;;;;;;;15.49;35.76;99058.06;5031757;28;20120;-66
2021/12/05 13:31:20;;;;;;;9.98;4.72;;;;;;;15.49;35.62;99062.56;5032301;28;20045;-64
2021/12/05 13:33:45;;;;;;;8.43;5.47;;;;;;;15.46;35.48;99063.72;5032590;28;20049;-67
2021/12/05 13:36:29;;;;;;;9.32;5.07;;;;;;;15.41;35.87;99064.22;5032394;28;20040;-66
2021/12/05 13:38:55;;;;;;;11.25;4.80;;;;;;;15.39;35.92;99068.03;5032367;28;20032;-67
2021/12/05 13:41:21;;;;;;;14.60;5.22;;;;;;;15.39;35.61;99073.38;5032532;28;20401;-68
2021/12/05 13:44:01;;;;;;;16.75;5.20;;;;;;;15.37;35.62;99072.69;5026082;28;20021;-65
2021/12/05 13:46:45;;;;;;;13.55;5.63;;;;;;;15.35;35.42;99083.53;5012821;28;20026;-67
2021/12/05 13:49:36;;;;;;;7.65;4.55;;;;;;;15.36;35.92;99090.53;5030773;28;20033;-68
2021/12/05 13:52:36;;;;;;;7.22;4.72;;;;;;;15.34;35.92;99081.84;5032455;28;20033;-68
2021/12/05 13:55:39;;;;;;;7.75;5.13;;;;;;;15.35;35.30;99085.38;5032228;28;20034;-69
2021/12/05 13:58:30;;;;;;;14.55;6.45;;;;;;;15.31;35.64;99078.69;5032369;28;20039;-68
2021/12/05 14:01:26;;;;;;;8.70;4.53;;;;;;;15.26;35.69;99088.00;5032242;28;20179;-67
2021/12/05 14:03:57;;;;;;;8.27;4.53;;;;;;;15.25;35.61;99088.19;5031734;28;20056;-68
2021/12/05 14:06:53;;;;;;;9.57;4.85;;;;;;;15.22;35.57;99089.31;5032483;28;20030;-68
2021/12/05 14:09:24;;;;;;;8.27;5.70;;;;;;;15.24;35.60;99095.31;5031445;28;20049;-66
2021/12/05 14:12:11;;;;;;;7.88;4.93;;;;;;;15.26;35.79;99090.66;5031895;28;20124;-66
2021/12/05 14:14:52;;;;;;;12.15;5.53;;;;;;;15.28;36.31;99098.53;5032079;28;20129;-69
2021/12/05 14:17:27;;;;;;;18.70;6.38;;;;;;;15.29;36.16;99096.69;5032129;28;20041;-66
2021/12/05 14:19:57;;;;;;;8.18;5.25;;;;;;;15.31;36.27;99092.03;5032011;28;20607;-69
2021/12/05 14:22:25;;;;;;;11.52;6.45;;;;;;;15.34;36.56;99099.69;5031371;28;20488;-68
2021/12/05 14:24:54;;;;;;;9.80;6.10;;;;;;;15.33;36.83;99101.50;5032125;28;20529;-68
2021/12/05 14:27:51;;;;;;;13.55;7.28;;;;;;;15.36;37.35;99103.03;5031673;28;20031;-67
2021/12/05 14:30:19;;;;;;;16.50;7.35;;;;;;;15.33;37.22;99098.84;5038852;28;20068;-66
2021/12/05 14:32:47;;;;;;;17.67;8.25;;;;;;;15.35;37.56;99104.84;5043508;28;20112;-68
2021/12/05 14:35:23;;;;;;;27.90;9.90;;;;;;;15.37;37.73;99104.69;5035701;28;20052;-68
2021/12/05 14:37:50;;;;;;;17.70;8.25;;;;;;;15.39;38.00;99106.22;5035450;28;20045;-68
2021/12/05 14:40:21;;;;;;;26.98;8.23;;;;;;;15.37;37.71;99107.34;5028067;28;20427;-67
2021/12/05 14:42:50;;;;;;;16.52;7.70;;;;;;;15.35;37.94;99117.38;5035001;28;20048;-70
2021/12/05 14:45:26;;;;;;;17.23;7.35;;;;;;;15.32;38.01;99107.84;5020641;28;20149;-68
2021/12/05 14:47:53;;;;;;;15.43;7.38;;;;;;;15.34;38.35;99111.19;5039211;28;20037;-68
2021/12/05 14:50:26;;;;;;;24.77;9.70;;;;;;;15.36;38.82;99108.38;5032669;28;20045;-67
2021/12/05 14:52:55;;;;;;;20.05;7.57;;;;;;;15.33;38.63;99116.69;5033466;28;20060;-67
2021/12/05 14:55:22;;;;;;;16.17;8.10;;;;;;;15.35;39.15;99128.84;5034917;28;20041;-67
2021/12/05 14:57:53;;;;;;;14.00;6.50;;;;;;;15.34;39.44;99129.84;5035355;28;20102;-66
2021/12/05 15:00:24;;;;;;;17.30;7.68;;;;;;;15.40;39.41;99137.19;5036118;28;20040;-67
2021/12/05 15:03:00;;;;;;;15.65;6.20;;;;;;;15.47;39.64;99142.72;5034191;28;20041;-63
2021/12/05 15:05:26;;;;;;;13.13;6.38;;;;;;;15.49;39.49;99139.88;5032595;28;20392;-70
2021/12/05 15:08:02;;;;;;;16.98;6.38;;;;;;;15.48;39.68;99136.41;5035367;28;20039;-68
2021/12/05 15:10:28;;;;;;;11.75;6.38;;;;;;;15.50;39.66;99131.75;5035248;28;20127;-68
2021/12/05 15:12:54;;;;;;;11.02;5.50;;;;;;;15.50;39.31;99145.06;5033719;28;20188;-67
2021/12/05 15:15:22;;;;;;;12.40;5.60;;;;;;;15.48;39.08;99141.72;5037503;28;20044;-67
2021/12/05 15:17:48;;;;;;;9.52;5.80;;;;;;;15.46;39.15;99142.88;5033118;28;20417;-68
2021/12/05 15:20:18;;;;;;;8.52;5.18;;;;;;;15.46;38.93;99138.38;5024982;28;20135;-68
2021/12/05 15:22:47;;;;;;;11.10;5.22;;;;;;;15.44;38.66;99136.88;5027053;28;20135;-67
2021/12/05 15:25:16;;;;;;;14.73;6.95;;;;;;;15.40;38.89;99142.53;5034371;28;20055;-70
2021/12/05 15:27:43;;;;;;;13.38;5.95;;;;;;;15.38;38.47;99151.66;5040914;28;20468;-70
2021/12/05 15:30:09;;;;;;;7.90;5.50;;;;;;;15.35;38.58;99144.84;5039695;28;20040;-71
2021/12/05 15:32:35;;;;;;;7.85;5.30;;;;;;;15.34;38.16;99145.00;5032956;28;20037;-72
2021/12/05 15:35:08;;;;;;;8.50;5.25;;;;;;;15.32;38.26;99153.16;5041894;28;20136;-71
2021/12/05 15:37:34;;;;;;;9.60;5.47;;;;;;;15.30;38.22;99154.31;5051204;28;20129;-71
2021/12/05 15:40:02;;;;;;;10.68;6.60;;;;;;;15.28;38.04;99150.97;5034412;28;20085;-71
2021/12/05 15:42:32;;;;;;;8.43;6.00;;;;;;;15.24;37.79;99156.63;5012868;28;20084;-72
2021/12/05 15:45:00;;;;;;;8.18;5.28;;;;;;;15.23;37.67;99154.13;5014684;28;20029;-73
2021/12/05 15:47:29;;;;;;;7.68;5.15;;;;;;;15.20;37.83;99160.63;5026822;28;20112;-71
2021/12/05 15:49:57;;;;;;;8.40;5.47;;;;;;;15.16;37.59;99158.41;5033773;28;20037;-71
2021/12/05 15:52:38;;;;;;;9.20;5.47;;;;;;;15.12;37.82;99152.56;5048003;28;20037;-71
2021/12/05 15:55:08;;;;;;;12.95;5.55;;;;;;;15.08;37.64;99153.88;5034399;28;20037;-70
2021/12/05 15:57:37;;;;;;;10.88;6.45;;;;;;;15.03;37.59;99153.53;5033811;28;20733;-71
2021/12/05 16:00:19;;;;;;;10.48;6.90;;;;;;;15.00;37.79;99162.66;5034073;28;20041;-71
2021/12/05 16:02:47;;;;;;;9.15;6.22;;;;;;;14.98;37.54;99162.03;5034489;28;20456;-72
2021/12/05 16:05:18;;;;;;;9.63;7.15;;;;;;;14.99;37.49;99168.16;5034334;28;20087;-71
2021/12/05 16:07:44;;;;;;;;;;;;;;;14.98;37.51;99169.16;5037163;28;20045;-71
2021/12/05 16:10:13;;;;;;;12.18;7.45;;;;;;;14.98;37.58;99169.16;5048088;28;19924;-71
2021/12/05 16:12:41;;;;;;;9.38;7.00;;;;;;;14.98;37.62;99170.00;5033626;28;20053;-70
2021/12/05 16:15:07;;;;;;;7.78;6.32;;;;;;;14.99;37.32;99170.84;5034232;28;20040;-70
2021/12/05 16:17:34;;;;;;;11.30;7.20;;;;;;;15.01;37.35;99167.00;5033753;28;20065;-71
2021/12/05 16:20:11;;;;;;;9.85;6.68;;;;;;;15.04;37.11;99171.19;5034075;28;20037;-72
2021/12/05 16:23:13;;;;;;;10.57;6.95;;;;;;;15.03;37.25;99167.69;5033440;28;20037;-70
2021/12/05 16:25:56;;;;;;;12.20;5.95;;;;;;;15.07;36.84;99170.88;5034222;28;20129;-70
2021/12/05 16:28:25;;;;;;;9.65;5.68;;;;;;;15.07;37.07;99171.72;5043706;28;20064;-73
2021/12/05 16:30:58;;;;;;;8.77;7.25;;;;;;;15.09;36.84;99177.72;5054017;28;20050;-70
2021/12/05 16:33:24;;;;;;;9.32;7.15;;;;;;;15.08;36.94;99177.88;5053659;28;20123;-69
2021/12/05 16:35:53;;;;;;;13.65;7.13;;;;;;;15.04;36.78;99179.19;5053568;28;20029;-73
2021/12/05 16:38:32;;;;;;;11.63;6.88;;;;;;;15.01;37.22;99185.66;5045432;28;20052;-71
2021/12/05 16:41:03;;;;;;;12.80;6.93;;;;;;;15.00;37.58;99188.50;5033971;28;20496;-71
2021/12/05 16:43:33;;;;;;;11.15;6.72;;;;;;;14.99;38.19;99194.81;5032025;28;20030;-71
2021/12/05 16:46:21;;;;;;;11.98;7.10;;;;;;;14.97;38.18;99202.97;5033261;28;20046;-71
2021/12/05 16:48:48;;;;;;;12.38;6.93;;;;;;;14.98;37.82;99209.13;5013648;28;20045;-73
2021/12/05 16:51:35;;;;;;;11.65;6.97;;;;;;;14.94;38.19;99209.44;5013682;28;20038;-73
2021/12/05 16:54:15;;;;;;;10.90;6.65;;;;;;;14.92;38.35;99214.09;5022379;28;20171;-72
2021/12/05 16:56:57;;;;;;;11.77;6.88;;;;;;;14.90;38.57;99218.75;5033031;28;20037;-70
2021/12/05 16:59:30;;;;;;;8.80;6.93;;;;;;;14.87;38.45;99224.38;5032811;28;20400;-71
2021/12/05 17:02:17;;;;;;;9.35;7.00;;;;;;;14.83;38.50;99219.53;5032641;28;20167;-71
2021/12/05 17:04:56;;;;;;;9.88;6.75;;;;;;;14.82;38.43;99221.34;5033166;28;20083;-71
2021/12/05 17:07:55;;;;;;;8.23;6.35;;;;;;;14.78;38.40;99233.28;5033136;28;20116;-72
2021/12/05 17:10:21;;;;;;;11.70;7.50;;;;;;;14.73;38.43;99227.63;5017023;28;20041;-70
2021/12/05 17:12:50;;;;;;;10.55;6.72;;;;;;;14.75;38.42;99228.31;5032824;28;20061;-71
2021/12/05 17:15:21;;;;;;;10.40;7.45;;;;;;;14.75;38.46;99229.13;5033478;28;20431;-71
2021/12/05 17:17:49;;;;;;;14.13;7.10;;;;;;;14.76;38.50;99228.13;5032193;28;20048;-71
2021/12/05 17:20:42;;;;;;;9.77;8.15;;;;;;;14.78;38.08;99228.81;5032848;28;20175;-70
2021/12/05 17:23:12;;;;;;;9.82;6.82;;;;;;;14.76;38.07;99225.47;5032728;28;20136;-72
2021/12/05 17:25:46;;;;;;;11.52;7.25;;;;;;;14.73;38.14;99233.75;5032952;28;20063;-71
2021/12/05 17:28:18;;;;;;;11.48;7.63;;;;;;;14.76;38.09;99229.97;5032635;28;20021;-70
2021/12/05 17:30:56;;;;;;;10.13;7.30;;;;;;;14.73;37.97;99238.28;5032914;28;20041;-71
2021/12/05 17:33:29;;;;;;;8.60;6.90;;;;;;;14.73;37.86;99240.94;5031809;28;20043;-72
2021/12/05 17:35:55;;;;;;;9.40;6.10;;;;;;;14.69;37.59;99240.41;5031651;28;20072;-73